createdAt,value
2018-07-12T00:01:52.620Z,81.60
2018-07-12T00:04:20.444Z,81.49
2018-07-12T00:06:48.273Z,81.52
2018-07-12T00:09:16.097Z,81.55
2018-07-12T00:11:43.922Z,81.55
2018-07-12T00:14:11.747Z,81.19
2018-07-12T00:16:39.594Z,80.84
2018-07-12T00:19:07.417Z,80.69
2018-07-12T00:21:35.251Z,81.22
2018-07-12T00:24:03.074Z,80.83
2018-07-12T00:26:30.896Z,80.81
2018-07-12T00:28:58.782Z,80.97
2018-07-12T00:31:26.617Z,80.77
2018-07-12T00:33:54.446Z,80.45
2018-07-12T00:36:22.275Z,80.75
2018-07-12T00:38:50.109Z,81.16
2018-07-12T00:41:18.020Z,80.97
2018-07-12T00:43:45.866Z,81.03
2018-07-12T00:46:13.704Z,81.04
2018-07-12T00:48:41.528Z,81.63
2018-07-12T00:51:09.368Z,81.67
2018-07-12T00:53:37.207Z,81.45
2018-07-12T00:56:05.146Z,81.50
2018-07-12T00:58:33.016Z,81.65
2018-07-12T01:01:00.824Z,82.17
2018-07-12T01:03:28.661Z,81.92
2018-07-12T01:05:56.489Z,81.63
2018-07-12T01:08:24.310Z,81.57
2018-07-12T01:10:52.194Z,81.43
2018-07-12T01:13:20.021Z,81.74
2018-07-12T01:15:47.852Z,81.69
2018-07-12T01:18:15.683Z,82.14
2018-07-12T01:20:43.525Z,81.77
2018-07-12T01:23:12.209Z,81.51
2018-07-12T01:25:40.040Z,82.01
2018-07-12T01:28:07.870Z,82.03
2018-07-12T01:30:35.705Z,82.67
2018-07-12T01:33:03.545Z,82.69
2018-07-12T01:35:31.417Z,82.69
2018-07-12T01:37:59.248Z,82.36
2018-07-12T01:40:27.112Z,82.53
2018-07-12T01:42:54.948Z,81.98
2018-07-12T01:45:22.758Z,82.33
2018-07-12T01:47:50.603Z,82.54
2018-07-12T01:50:18.436Z,82.41
2018-07-12T01:52:46.248Z,82.28
2018-07-12T01:55:14.124Z,82.56
2018-07-12T01:57:41.952Z,82.12
2018-07-12T02:00:09.829Z,82.20
2018-07-12T02:02:37.666Z,82.18
2018-07-12T02:05:05.500Z,82.22
2018-07-12T02:07:33.336Z,82.41
2018-07-12T02:10:01.334Z,82.32
2018-07-12T02:12:29.173Z,82.53
2018-07-12T02:14:57.002Z,82.62
2018-07-12T02:17:24.841Z,82.08
2018-07-12T02:19:52.670Z,82.57
2018-07-12T02:22:20.502Z,82.18
2018-07-12T02:24:48.318Z,82.53
2018-07-12T02:27:16.137Z,81.83
2018-07-12T02:29:43.974Z,82.24
2018-07-12T02:32:11.816Z,82.66
2018-07-12T02:34:39.668Z,82.33
2018-07-12T02:37:07.482Z,82.07
2018-07-12T02:39:35.313Z,82.00
2018-07-12T02:42:03.194Z,82.37
2018-07-12T02:44:31.021Z,82.19
2018-07-12T02:46:58.863Z,82.17
2018-07-12T02:49:26.713Z,82.24
2018-07-12T02:51:54.587Z,82.66
2018-07-12T02:54:22.437Z,82.44
2018-07-12T02:56:50.307Z,82.37
2018-07-12T02:59:18.175Z,82.56
2018-07-12T03:01:46.003Z,82.17
2018-07-12T03:04:13.847Z,82.12
2018-07-12T03:06:41.666Z,82.57
2018-07-12T03:09:09.703Z,82.14
2018-07-12T03:11:37.576Z,82.68
2018-07-12T03:14:05.964Z,82.82
2018-07-12T03:16:33.799Z,82.91
2018-07-12T03:19:01.649Z,82.58
2018-07-12T03:21:29.499Z,82.17
2018-07-12T03:23:57.326Z,82.29
2018-07-12T03:26:25.165Z,82.29
2018-07-12T03:28:52.987Z,82.14
2018-07-12T03:31:20.825Z,82.85
2018-07-12T03:33:48.657Z,83.44
2018-07-12T03:36:16.799Z,83.25
2018-07-12T03:38:44.655Z,82.87
2018-07-12T03:41:12.490Z,82.35
2018-07-12T03:43:40.325Z,81.96
2018-07-12T03:46:08.155Z,82.27
2018-07-12T03:48:35.971Z,82.49
2018-07-12T03:51:03.806Z,82.42
2018-07-12T03:53:31.631Z,82.14
2018-07-12T03:55:59.482Z,82.03
2018-07-12T03:58:27.322Z,82.37
2018-07-12T04:00:55.141Z,81.95
2018-07-12T04:03:22.971Z,81.60
2018-07-12T04:05:50.835Z,82.07
2018-07-12T04:08:18.659Z,81.73
2018-07-12T04:10:46.523Z,81.56
2018-07-12T04:13:14.403Z,81.57
2018-07-12T04:15:42.213Z,81.95
2018-07-12T04:18:10.049Z,81.92
2018-07-12T04:20:37.885Z,81.76
2018-07-12T04:23:05.715Z,82.21
2018-07-12T04:25:33.545Z,82.04
2018-07-12T04:28:01.409Z,82.16
2018-07-12T04:30:29.279Z,82.61
2018-07-12T04:32:57.109Z,82.41
2018-07-12T04:35:24.936Z,82.43
2018-07-12T04:37:52.833Z,82.13
2018-07-12T04:40:20.585Z,82.00
2018-07-12T04:42:48.423Z,81.72
2018-07-12T04:45:16.252Z,81.51
2018-07-12T04:47:44.147Z,81.46
2018-07-12T04:50:12.007Z,81.53
2018-07-12T04:52:39.839Z,81.59
2018-07-12T04:55:07.663Z,81.69
2018-07-12T04:57:35.516Z,81.36
2018-07-12T05:00:03.341Z,81.20
2018-07-12T05:02:31.175Z,81.61
2018-07-12T05:04:58.997Z,81.51
2018-07-12T05:07:26.880Z,81.33
2018-07-12T05:09:54.710Z,81.75
2018-07-12T05:12:22.545Z,81.33
2018-07-12T05:14:50.365Z,81.42
2018-07-12T05:17:18.211Z,80.92
2018-07-12T05:19:46.073Z,80.69
2018-07-12T05:22:13.925Z,80.63
2018-07-12T05:24:41.784Z,80.15
2018-07-12T05:27:09.609Z,80.54
2018-07-12T05:29:37.437Z,80.42
2018-07-12T05:32:05.239Z,80.55
2018-07-12T05:34:33.089Z,80.71
2018-07-12T05:37:02.525Z,80.32
2018-07-12T05:39:31.503Z,79.76
2018-07-12T05:42:00.464Z,79.50
2018-07-12T05:44:29.381Z,78.95
2018-07-12T05:46:58.334Z,78.54
2018-07-12T05:49:27.255Z,79.08
2018-07-12T05:51:56.249Z,79.16
2018-07-12T05:54:25.163Z,79.27
2018-07-12T05:56:54.076Z,78.72
2018-07-12T05:59:28.413Z,78.69
2018-07-12T06:02:14.419Z,78.74
2018-07-12T06:04:43.339Z,78.22
2018-07-12T06:07:12.229Z,78.27
2018-07-12T06:09:41.193Z,78.53
2018-07-12T06:12:10.115Z,78.02
2018-07-12T06:14:39.002Z,78.00
2018-07-12T06:17:07.925Z,77.86
2018-07-12T06:19:36.917Z,77.71
2018-07-12T06:22:05.890Z,77.24
2018-07-12T06:24:34.869Z,77.44
2018-07-12T06:27:03.806Z,77.24
2018-07-12T06:29:32.784Z,77.05
2018-07-12T06:32:01.718Z,77.17
2018-07-12T06:34:30.708Z,77.39
2018-07-12T06:36:59.636Z,76.87
2018-07-12T06:39:28.592Z,77.08
2018-07-12T06:41:57.481Z,76.25
2018-07-12T06:44:26.977Z,77.15
2018-07-12T06:46:56.093Z,77.35
2018-07-12T06:49:25.094Z,77.40
2018-07-12T06:51:54.057Z,76.90
2018-07-12T06:54:22.961Z,76.53
2018-07-12T06:56:51.928Z,76.37
2018-07-12T06:59:20.851Z,75.85
2018-07-12T07:01:49.828Z,75.55
2018-07-12T07:04:18.775Z,75.17
2018-07-12T07:06:47.728Z,75.75
2018-07-12T07:09:16.715Z,76.06
2018-07-12T07:11:45.639Z,76.08
2018-07-12T07:14:14.636Z,75.60
2018-07-12T07:16:43.592Z,75.55
2018-07-12T07:19:12.526Z,76.09
2018-07-12T07:21:41.469Z,75.74
2018-07-12T07:24:10.426Z,75.78
2018-07-12T07:26:39.620Z,76.12
2018-07-12T07:29:08.544Z,75.31
2018-07-12T07:31:37.480Z,74.96
2018-07-12T07:34:06.402Z,74.49
2018-07-12T07:36:35.357Z,73.79
2018-07-12T07:39:05.581Z,74.19
2018-07-12T07:41:34.532Z,73.59
2018-07-12T07:44:03.773Z,72.20
2018-07-12T07:46:32.705Z,72.94
2018-07-12T07:49:01.719Z,73.22
2018-07-12T07:51:30.687Z,73.17
2018-07-12T07:53:59.597Z,73.05
2018-07-12T07:56:28.555Z,73.34
2018-07-12T07:58:57.492Z,73.11
2018-07-12T08:01:26.470Z,72.60
2018-07-12T08:03:55.553Z,72.43
2018-07-12T08:06:24.510Z,72.44
2018-07-12T08:08:53.460Z,72.17
2018-07-12T08:11:22.416Z,71.77
2018-07-12T08:13:51.379Z,71.07
2018-07-12T08:16:20.346Z,70.34
2018-07-12T08:18:49.326Z,70.39
2018-07-12T08:21:18.313Z,69.94
2018-07-12T08:23:47.508Z,70.71
2018-07-12T08:26:16.428Z,70.16
2018-07-12T08:28:45.421Z,70.15
2018-07-12T08:31:14.372Z,69.00
2018-07-12T08:33:43.369Z,68.72
2018-07-12T08:36:12.277Z,67.53
2018-07-12T08:38:41.164Z,66.66
2018-07-12T08:41:10.132Z,66.93
2018-07-12T08:43:39.061Z,66.62
2018-07-12T08:46:08.061Z,67.53
2018-07-12T08:48:36.971Z,68.40
2018-07-12T08:51:05.899Z,68.20
2018-07-12T08:53:38.578Z,67.38
2018-07-12T08:56:07.469Z,67.55
2018-07-12T08:58:36.385Z,69.04
2018-07-12T09:01:05.319Z,67.75
2018-07-12T09:03:34.252Z,65.97
2018-07-12T09:06:03.207Z,65.02
2018-07-12T09:08:32.140Z,65.26
2018-07-12T09:11:01.063Z,65.24
2018-07-12T09:13:30.053Z,64.27
2018-07-12T09:15:58.936Z,64.44
2018-07-12T09:18:27.950Z,64.41
2018-07-12T09:20:56.965Z,64.01
2018-07-12T09:23:25.876Z,64.36
2018-07-12T09:25:55.848Z,63.79
2018-07-12T09:28:24.792Z,65.15
2018-07-12T09:30:53.843Z,65.53
2018-07-12T09:33:22.691Z,65.36
2018-07-12T09:35:51.679Z,64.74
2018-07-12T09:38:31.955Z,64.22
2018-07-12T09:41:00.894Z,64.45
2018-07-12T09:43:30.235Z,63.25
2018-07-12T09:45:59.232Z,63.32
2018-07-12T09:48:28.191Z,64.74
2018-07-12T09:50:57.190Z,65.21
2018-07-12T09:53:26.128Z,63.98
2018-07-12T09:55:55.132Z,64.21
2018-07-12T09:58:28.936Z,63.03
2018-07-12T10:01:03.280Z,61.54
2018-07-12T10:03:37.371Z,62.28
2018-07-12T10:06:11.601Z,62.42
2018-07-12T10:08:45.862Z,61.34
2018-07-12T10:11:20.136Z,62.62
2018-07-12T10:13:54.440Z,63.20
2018-07-12T10:16:28.614Z,63.87
2018-07-12T10:18:57.605Z,63.78
2018-07-12T10:21:26.562Z,62.65
2018-07-12T10:23:55.479Z,63.06
2018-07-12T10:26:24.410Z,63.53
2018-07-12T10:28:53.359Z,62.88
2018-07-12T10:31:22.261Z,63.75
2018-07-12T10:33:53.237Z,61.89
2018-07-12T10:36:22.234Z,62.00
2018-07-12T10:38:51.137Z,61.65
2018-07-12T10:41:20.003Z,62.15
2018-07-12T10:43:49.016Z,61.37
2018-07-12T10:46:17.962Z,61.59
2018-07-12T10:48:46.880Z,60.89
2018-07-12T10:51:15.793Z,60.28
2018-07-12T10:53:44.684Z,60.94
2018-07-12T10:56:13.638Z,60.66
2018-07-12T10:58:42.592Z,61.90
2018-07-12T11:01:12.708Z,61.06
2018-07-12T11:03:41.656Z,62.53
2018-07-12T11:06:10.589Z,62.84
2018-07-12T11:08:39.589Z,62.06
2018-07-12T11:11:08.483Z,61.83
2018-07-12T11:13:50.429Z,60.75
2018-07-12T11:16:19.600Z,61.06
2018-07-12T11:18:48.776Z,60.45
2018-07-12T11:21:17.710Z,58.71
2018-07-12T11:23:46.630Z,60.08
2018-07-12T11:26:15.638Z,59.40
2018-07-12T11:28:44.572Z,58.43
2018-07-12T11:31:13.537Z,59.00
2018-07-12T11:33:46.606Z,59.71
2018-07-12T11:36:15.553Z,59.15
2018-07-12T11:38:45.046Z,58.54
2018-07-12T11:41:14.102Z,58.60
2018-07-12T11:43:43.049Z,60.15
2018-07-12T11:46:13.185Z,58.80
2018-07-12T11:48:42.910Z,58.01
2018-07-12T11:51:11.900Z,58.11
2018-07-12T11:53:40.820Z,58.60
2018-07-12T11:56:09.730Z,58.17
2018-07-12T11:58:38.665Z,57.38
2018-07-12T12:01:07.887Z,57.53
2018-07-12T12:03:36.796Z,56.54
2018-07-12T12:06:05.756Z,55.75
2018-07-12T12:08:34.651Z,56.33
2018-07-12T12:11:03.576Z,56.24
2018-07-12T12:13:32.462Z,56.63
2018-07-12T12:16:01.407Z,56.67
2018-07-12T12:18:30.348Z,56.76
2018-07-12T12:20:59.252Z,55.92
2018-07-12T12:23:28.176Z,55.46
2018-07-12T12:25:57.077Z,55.73
2018-07-12T12:28:26.001Z,55.95
2018-07-12T12:30:54.971Z,55.05
2018-07-12T12:33:23.920Z,55.51
2018-07-12T12:35:52.869Z,56.63
2018-07-12T12:38:21.887Z,56.78
2018-07-12T12:40:50.947Z,56.82
2018-07-12T12:43:19.867Z,56.88
2018-07-12T12:45:48.867Z,56.06
2018-07-12T12:48:17.782Z,56.13
2018-07-12T12:50:46.807Z,55.66
2018-07-12T12:53:15.741Z,55.54
2018-07-12T12:55:44.701Z,55.58
2018-07-12T12:58:13.592Z,56.24
2018-07-12T13:00:42.796Z,56.17
2018-07-12T13:03:11.761Z,55.96
2018-07-12T13:05:40.641Z,55.44
2018-07-12T13:08:09.673Z,55.58
2018-07-12T13:10:38.583Z,55.78
2018-07-12T13:13:07.723Z,54.75
2018-07-12T13:15:36.679Z,53.53
2018-07-12T13:18:05.867Z,55.33
2018-07-12T13:20:34.841Z,55.98
2018-07-12T13:23:03.807Z,55.71
2018-07-12T13:25:32.816Z,55.49
2018-07-12T13:28:01.717Z,55.28
2018-07-12T13:30:30.622Z,55.40
2018-07-12T13:32:59.665Z,55.24
2018-07-12T13:35:28.712Z,55.41
2018-07-12T13:37:57.596Z,56.12
2018-07-12T13:40:26.505Z,56.14
2018-07-12T13:42:55.404Z,55.26
2018-07-12T13:45:24.379Z,55.69
2018-07-12T13:47:53.347Z,55.96
2018-07-12T13:50:22.449Z,56.26
2018-07-12T13:52:51.391Z,56.17
2018-07-12T13:55:20.309Z,54.74
2018-07-12T13:57:49.216Z,54.69
2018-07-12T14:00:18.281Z,55.59
2018-07-12T14:02:47.176Z,56.23
2018-07-12T14:05:16.483Z,56.44
2018-07-12T14:07:45.385Z,57.03
2018-07-12T14:10:14.341Z,57.14
2018-07-12T14:12:43.239Z,57.13
2018-07-12T14:15:12.157Z,56.56
2018-07-12T14:17:41.067Z,56.51
2018-07-12T14:20:10.011Z,56.51
2018-07-12T14:22:38.936Z,56.34
2018-07-12T14:25:07.853Z,55.99
2018-07-12T14:27:36.787Z,56.54
2018-07-12T14:30:06.203Z,56.24
2018-07-12T14:32:35.154Z,56.49
2018-07-12T14:35:04.141Z,56.38
2018-07-12T14:37:33.063Z,56.05
2018-07-12T14:40:02.016Z,56.44
2018-07-12T14:42:30.961Z,56.19
2018-07-12T14:44:59.934Z,57.30
2018-07-12T14:47:28.879Z,57.16
2018-07-12T14:49:57.800Z,56.62
2018-07-12T14:52:26.748Z,57.19
2018-07-12T14:54:55.721Z,57.71
2018-07-12T14:57:24.736Z,57.63
2018-07-12T14:59:53.721Z,56.46
2018-07-12T15:02:22.662Z,57.17
2018-07-12T15:04:51.623Z,56.86
2018-07-12T15:07:21.468Z,56.44
2018-07-12T15:10:02.609Z,56.79
2018-07-12T15:21:50.637Z,56.72
2018-07-12T15:24:19.619Z,56.36
2018-07-12T15:26:48.525Z,56.79
2018-07-12T15:29:17.512Z,56.92
2018-07-12T15:31:46.385Z,56.87
2018-07-12T15:34:15.346Z,55.75
2018-07-12T15:36:44.313Z,57.21
2018-07-12T15:39:13.245Z,57.37
2018-07-12T15:41:42.279Z,57.23
2018-07-12T15:44:11.206Z,56.65
2018-07-12T15:46:40.154Z,56.04
2018-07-12T15:49:09.031Z,56.37
2018-07-12T15:51:38.147Z,56.84
2018-07-12T15:54:07.233Z,57.24
2018-07-12T15:56:36.294Z,57.65
2018-07-12T15:59:05.261Z,57.10
2018-07-12T16:01:34.208Z,57.48
2018-07-12T16:05:32.397Z,56.58
2018-07-12T16:08:01.405Z,56.70
2018-07-12T16:10:30.380Z,57.46
2018-07-12T16:12:59.305Z,57.17
2018-07-12T16:15:28.296Z,57.17
2018-07-12T16:17:57.177Z,56.11
2018-07-12T16:20:26.136Z,56.52
2018-07-12T16:22:55.133Z,57.09
2018-07-12T16:25:24.051Z,57.97
2018-07-12T16:27:53.018Z,58.12
2018-07-12T16:30:21.913Z,57.34
2018-07-12T16:32:50.901Z,58.12
2018-07-12T16:35:19.793Z,58.83
2018-07-12T16:37:49.096Z,59.23
2018-07-12T16:40:18.146Z,58.80
2018-07-12T16:42:47.185Z,58.63
2018-07-12T16:45:16.111Z,58.67
2018-07-12T16:47:45.052Z,58.21
2018-07-12T16:50:13.993Z,59.02
2018-07-12T16:52:42.917Z,59.06
2018-07-12T16:55:12.143Z,59.29
2018-07-12T16:57:41.221Z,59.07
2018-07-12T17:00:10.238Z,59.15
2018-07-12T17:02:39.391Z,59.59
2018-07-12T17:05:08.338Z,59.17
2018-07-12T17:07:37.555Z,59.44
2018-07-12T17:10:06.438Z,59.86
2018-07-12T17:12:35.410Z,60.25
2018-07-12T17:15:04.532Z,59.80
2018-07-12T17:17:33.489Z,59.46
2018-07-12T17:20:02.425Z,59.18
2018-07-12T17:22:31.713Z,59.05
2018-07-12T17:25:01.013Z,59.21
2018-07-12T17:27:29.994Z,59.83
2018-07-12T17:29:58.927Z,60.26
2018-07-12T17:32:27.846Z,60.33
2018-07-12T17:34:56.799Z,60.72
2018-07-12T17:37:25.689Z,60.71
2018-07-12T17:39:54.609Z,60.28
2018-07-12T17:42:23.540Z,59.48
2018-07-12T17:44:52.462Z,59.34
2018-07-12T17:47:21.456Z,60.31
2018-07-12T17:49:50.368Z,60.28
2018-07-12T17:52:19.315Z,60.51
2018-07-12T17:54:48.207Z,60.85
2018-07-12T17:57:17.164Z,61.17
2018-07-12T17:59:46.068Z,61.14
2018-07-12T18:02:14.965Z,60.51
2018-07-12T18:04:43.892Z,60.84
2018-07-12T18:07:12.816Z,61.60
2018-07-12T18:09:41.791Z,61.69
2018-07-12T18:12:10.749Z,62.44
2018-07-12T18:14:39.641Z,62.71
2018-07-12T18:17:08.624Z,63.49
2018-07-12T18:19:37.509Z,63.76
2018-07-12T18:22:06.619Z,62.98
2018-07-12T18:33:22.030Z,63.09
2018-07-12T18:43:40.709Z,64.40
2018-07-12T18:46:23.978Z,65.02
2018-07-12T18:48:52.959Z,66.05
2018-07-12T18:51:21.903Z,66.62
2018-07-12T19:29:19.598Z,69.00
2018-07-12T19:31:48.544Z,70.82
2018-07-12T19:34:17.502Z,71.17
2018-07-12T19:36:46.512Z,71.02
2018-07-12T19:39:15.470Z,71.55
2018-07-12T19:41:44.502Z,71.75
2018-07-12T19:44:13.486Z,71.69
2018-07-12T19:46:42.435Z,72.07
2018-07-12T19:49:11.372Z,71.60
2018-07-12T19:51:40.360Z,72.16
2018-07-12T19:54:09.298Z,71.73
2018-07-12T19:56:38.303Z,71.42
2018-07-12T19:59:10.382Z,71.39
2018-07-12T20:01:39.416Z,71.14
2018-07-12T20:04:08.396Z,71.13
2018-07-12T20:06:37.434Z,71.22
2018-07-12T20:09:07.578Z,71.22
2018-07-12T20:11:53.020Z,71.16
2018-07-12T20:14:22.049Z,71.64
2018-07-12T20:16:51.040Z,71.73
2018-07-12T20:19:19.979Z,71.22
2018-07-12T20:21:48.984Z,71.43
2018-07-12T20:24:17.926Z,72.04
2018-07-12T20:26:46.848Z,72.64
2018-07-12T20:29:16.389Z,72.52
2018-07-12T20:31:45.365Z,72.49
2018-07-12T20:34:14.272Z,72.97
2018-07-12T20:36:44.460Z,73.28
2018-07-12T20:39:13.420Z,72.89
2018-07-12T20:41:42.392Z,72.67
2018-07-12T20:44:11.358Z,72.93
2018-07-12T20:46:40.304Z,73.10
2018-07-12T20:49:09.240Z,73.46
2018-07-12T20:51:38.182Z,73.72
2018-07-12T20:54:07.138Z,74.22
2018-07-12T20:56:36.120Z,74.27
2018-07-12T20:59:05.084Z,73.91
2018-07-12T21:01:34.160Z,73.58
2018-07-12T21:04:03.108Z,73.61
2018-07-12T21:06:32.088Z,73.65
2018-07-12T21:09:08.532Z,73.70
2018-07-12T21:11:38.468Z,73.38
2018-07-12T21:14:07.445Z,73.23
2018-07-12T21:16:36.389Z,73.66
2018-07-12T21:19:05.884Z,73.96
2018-07-12T21:21:34.940Z,73.77
2018-07-12T21:24:03.889Z,73.76
2018-07-12T21:26:32.847Z,73.15
2018-07-12T21:29:01.761Z,73.65
2018-07-12T21:31:30.704Z,74.02
2018-07-12T21:33:59.672Z,74.00
2018-07-12T21:36:28.654Z,74.24
2018-07-12T21:38:57.805Z,74.98
2018-07-12T21:41:26.741Z,74.84
2018-07-12T21:43:55.762Z,74.95
2018-07-12T21:46:24.696Z,75.29
2018-07-12T21:48:53.632Z,75.13
2018-07-12T21:51:22.608Z,75.13
2018-07-12T21:53:51.644Z,74.92
2018-07-12T21:56:20.751Z,74.96
2018-07-12T21:58:49.745Z,74.93
2018-07-12T22:01:18.707Z,74.88
2018-07-12T22:03:47.660Z,74.81
2018-07-12T22:06:19.484Z,75.04
2018-07-12T22:08:48.449Z,75.59
2018-07-12T22:11:17.480Z,75.31
2018-07-12T22:13:46.438Z,74.86
2018-07-12T22:16:15.386Z,74.49
2018-07-12T22:18:44.386Z,74.44
2018-07-12T22:21:13.376Z,74.73
2018-07-12T22:23:42.284Z,74.54
2018-07-12T22:26:11.228Z,74.35
2018-07-12T22:28:40.187Z,74.92
2018-07-12T22:31:09.286Z,74.78
2018-07-12T22:33:38.268Z,74.91
2018-07-12T22:36:07.226Z,75.17
2018-07-12T22:38:36.156Z,75.16
2018-07-12T22:41:05.095Z,75.37
2018-07-12T22:43:34.044Z,75.34
2018-07-12T22:59:02.486Z,75.74
2018-07-12T23:01:31.507Z,75.63
2018-07-12T23:04:00.454Z,75.65
2018-07-12T23:06:29.435Z,75.89
2018-07-12T23:08:58.375Z,75.95
2018-07-12T23:11:27.314Z,75.71
2018-07-12T23:13:56.307Z,75.08
2018-07-12T23:16:25.229Z,74.88
2018-07-12T23:18:54.193Z,75.24
2018-07-12T23:21:28.714Z,75.47
2018-07-12T23:23:57.650Z,75.62
2018-07-12T23:26:26.630Z,76.06
2018-07-12T23:28:55.568Z,76.11
2018-07-12T23:31:24.526Z,76.28
2018-07-12T23:33:53.478Z,75.71
2018-07-12T23:36:22.406Z,75.97
2018-07-12T23:38:51.405Z,75.04
2018-07-12T23:41:20.385Z,75.51
2018-07-12T23:43:49.305Z,75.99
2018-07-12T23:46:18.192Z,75.62
2018-07-12T23:48:47.154Z,75.93
2018-07-12T23:51:16.076Z,75.76
2018-07-12T23:53:44.999Z,75.67
2018-07-12T23:56:13.987Z,76.21
2018-07-12T23:58:42.985Z,76.32
